createdAt,value
2023-01-20T00:00:01.300Z,93.09
2023-01-20T00:05:00.598Z,91.97
2023-01-20T00:10:01.072Z,92.36
2023-01-20T00:15:00.581Z,92.78
2023-01-20T00:20:01.088Z,93.44
2023-01-20T00:25:00.604Z,92.70
2023-01-20T00:30:00.553Z,92.37
2023-01-20T00:35:00.579Z,92.23
2023-01-20T00:40:00.573Z,91.92
2023-01-20T00:45:00.574Z,92.15
2023-01-20T00:50:00.735Z,92.60
2023-01-20T00:55:00.589Z,92.77
2023-01-20T01:00:01.080Z,92.53
2023-01-20T01:05:00.583Z,92.71
2023-01-20T01:10:00.635Z,92.87
2023-01-20T01:15:00.850Z,93.16
2023-01-20T01:20:00.742Z,92.32
2023-01-20T01:25:00.567Z,93.11
2023-01-20T01:30:00.631Z,93.22
2023-01-20T01:35:00.635Z,93.25
2023-01-20T01:40:00.581Z,93.23
2023-01-20T01:45:10.805Z,92.91
2023-01-20T01:50:00.944Z,92.60
2023-01-20T01:55:02.122Z,93.15
2023-01-20T02:00:03.359Z,93.02
2023-01-20T02:05:01.565Z,92.91
2023-01-20T02:10:00.990Z,92.54
2023-01-20T02:15:02.721Z,92.68
2023-01-20T02:20:10.533Z,93.15
2023-01-20T02:25:14.125Z,92.83
2023-01-20T02:30:20.476Z,92.42
2023-01-20T02:35:13.830Z,92.45
2023-01-20T02:40:15.333Z,92.76
2023-01-20T02:45:11.360Z,92.75
2023-01-20T02:50:12.938Z,92.65
2023-01-20T02:55:05.391Z,93.21
2023-01-20T03:00:11.429Z,93.04
2023-01-20T03:05:06.174Z,93.16
2023-01-20T03:10:05.408Z,92.50
2023-01-20T03:15:01.294Z,92.72
2023-01-20T03:20:00.935Z,93.02
2023-01-20T03:25:02.072Z,93.19
2023-01-20T03:30:00.755Z,93.18
2023-01-20T03:35:00.591Z,93.11
2023-01-20T03:40:00.763Z,93.00
2023-01-20T03:45:16.209Z,93.10
2023-01-20T03:50:14.962Z,93.18
2023-01-20T03:55:14.536Z,93.03
2023-01-20T04:00:04.167Z,92.91
2023-01-20T04:05:02.769Z,92.96
2023-01-20T04:10:10.143Z,93.39
2023-01-20T04:15:00.960Z,93.45
2023-01-20T04:20:06.132Z,93.29
2023-01-20T04:25:12.880Z,93.21
2023-01-20T04:30:00.570Z,93.41
2023-01-20T04:35:00.626Z,93.33
2023-01-20T04:40:00.620Z,93.35
2023-01-20T04:45:00.634Z,93.33
2023-01-20T04:50:00.648Z,93.60
2023-01-20T04:55:00.760Z,93.32
2023-01-20T05:00:01.375Z,93.03
2023-01-20T05:05:00.558Z,93.26
2023-01-20T05:10:00.643Z,93.30
2023-01-20T05:15:00.621Z,93.16
2023-01-20T05:20:00.589Z,93.44
2023-01-20T05:25:00.592Z,93.54
2023-01-20T05:30:00.580Z,93.46
2023-01-20T05:35:00.576Z,93.55
2023-01-20T05:40:00.637Z,93.71
2023-01-20T05:45:00.648Z,93.58
2023-01-20T05:50:00.594Z,93.44
2023-01-20T05:55:00.571Z,93.07
2023-01-20T06:00:01.368Z,93.01
2023-01-20T06:05:00.629Z,92.79
2023-01-20T06:10:00.800Z,92.73
2023-01-20T06:15:00.861Z,92.64
2023-01-20T06:20:00.859Z,92.37
2023-01-20T06:25:00.553Z,93.03
2023-01-20T06:30:00.599Z,92.56
2023-01-20T06:35:00.611Z,92.64
2023-01-20T06:40:00.566Z,92.19
2023-01-20T06:45:00.611Z,92.43
2023-01-20T06:50:00.633Z,92.29
2023-01-20T06:55:00.554Z,92.43
2023-01-20T07:00:01.395Z,92.71
2023-01-20T07:05:00.717Z,92.78
2023-01-20T07:10:02.274Z,92.55
2023-01-20T07:15:00.590Z,92.93
2023-01-20T07:20:00.566Z,93.00
2023-01-20T07:25:00.579Z,93.19
2023-01-20T07:30:00.605Z,93.22
2023-01-20T07:35:00.542Z,93.03
2023-01-20T07:40:00.626Z,92.95
2023-01-20T07:45:00.583Z,93.60
2023-01-20T07:50:00.620Z,93.42
2023-01-20T07:55:00.581Z,93.56
2023-01-20T08:00:01.383Z,93.40
2023-01-20T08:05:00.688Z,93.82
2023-01-20T08:10:00.646Z,94.13
2023-01-20T08:15:00.573Z,94.40
2023-01-20T08:20:00.642Z,94.39
2023-01-20T08:25:00.580Z,94.46
2023-01-20T08:30:00.662Z,94.45
2023-01-20T08:35:00.604Z,94.33
2023-01-20T08:40:00.622Z,94.28
2023-01-20T08:45:00.645Z,94.20
2023-01-20T08:50:00.690Z,94.09
2023-01-20T08:55:00.931Z,94.32
2023-01-20T09:00:01.491Z,94.46
2023-01-20T09:05:00.686Z,94.20
2023-01-20T09:10:00.877Z,94.13
2023-01-20T09:15:01.277Z,94.16
2023-01-20T09:20:00.640Z,94.02
2023-01-20T09:25:00.571Z,93.99
2023-01-20T09:30:01.334Z,93.97
2023-01-20T09:35:00.668Z,93.99
2023-01-20T09:40:00.635Z,93.81
2023-01-20T09:45:12.504Z,93.63
2023-01-20T09:50:14.233Z,93.60
2023-01-20T09:55:09.025Z,93.59
2023-01-20T10:00:14.870Z,93.61
2023-01-20T10:05:09.931Z,93.19
2023-01-20T10:10:15.294Z,93.30
2023-01-20T10:15:09.217Z,93.22
2023-01-20T10:20:06.406Z,92.97
2023-01-20T10:25:08.360Z,92.78
2023-01-20T10:30:10.189Z,92.67
2023-01-20T10:35:09.159Z,92.60
2023-01-20T10:40:13.812Z,92.31
2023-01-20T10:45:00.752Z,92.41
2023-01-20T10:50:00.574Z,92.27
2023-01-20T10:55:17.456Z,92.33
2023-01-20T11:00:05.871Z,92.21
2023-01-20T11:05:15.269Z,92.23
2023-01-20T11:10:14.299Z,92.13
2023-01-20T11:15:00.953Z,92.14
2023-01-20T11:20:04.986Z,92.40
2023-01-20T11:25:03.299Z,92.34
2023-01-20T11:30:05.558Z,92.30
2023-01-20T11:35:12.034Z,92.26
2023-01-20T11:40:12.871Z,92.38
2023-01-20T11:45:20.873Z,92.36
2023-01-20T11:50:03.817Z,92.25
2023-01-20T11:55:11.771Z,92.12
2023-01-20T12:00:01.986Z,92.27
2023-01-20T12:05:03.824Z,92.29
2023-01-20T12:10:12.162Z,92.82
2023-01-20T12:15:04.586Z,93.24
2023-01-20T12:20:07.874Z,93.37
2023-01-20T12:25:20.120Z,93.27
2023-01-20T12:30:09.812Z,93.05
2023-01-20T12:35:00.751Z,92.83
2023-01-20T12:40:14.268Z,92.67
2023-01-20T12:45:20.474Z,92.69
2023-01-20T12:50:15.330Z,92.50
2023-01-20T12:55:14.586Z,92.28
2023-01-20T13:00:20.479Z,92.18
2023-01-20T13:05:16.045Z,92.53
2023-01-20T13:10:11.553Z,92.00
2023-01-20T13:15:12.928Z,92.07
2023-01-20T13:20:03.077Z,92.09
2023-01-20T13:25:00.918Z,91.98
2023-01-20T13:30:03.894Z,91.80
2023-01-20T13:35:18.821Z,91.69
2023-01-20T13:40:01.349Z,91.96
2023-01-20T13:45:11.329Z,91.80
2023-01-20T13:50:20.479Z,91.98
2023-01-20T13:55:00.580Z,92.02
2023-01-20T14:00:01.958Z,91.73
2023-01-20T14:05:00.593Z,91.32
2023-01-20T14:10:00.941Z,91.43
2023-01-20T14:15:00.667Z,91.25
2023-01-20T14:20:00.611Z,90.92
2023-01-20T14:25:00.783Z,90.92
2023-01-20T14:30:13.226Z,90.82
2023-01-20T14:35:03.054Z,90.78
2023-01-20T14:40:07.274Z,90.90
2023-01-20T14:45:00.605Z,90.73
2023-01-20T14:50:01.188Z,90.50
2023-01-20T14:55:00.600Z,90.50
2023-01-20T15:00:18.384Z,90.51
2023-01-20T15:05:01.196Z,90.50
2023-01-20T15:10:06.496Z,90.53
2023-01-20T15:15:10.747Z,90.51
2023-01-20T15:20:00.575Z,90.13
2023-01-20T15:25:10.863Z,90.10
2023-01-20T15:30:13.014Z,89.73
2023-01-20T15:35:00.563Z,89.50
2023-01-20T15:40:00.637Z,89.42
2023-01-20T15:45:00.562Z,89.32
2023-01-20T15:50:00.577Z,89.36
2023-01-20T15:55:00.559Z,89.00
2023-01-20T16:00:02.462Z,89.33
2023-01-20T16:05:00.577Z,89.26
2023-01-20T16:10:01.699Z,88.94
2023-01-20T16:15:00.564Z,88.61
2023-01-20T16:20:00.558Z,88.42
2023-01-20T16:25:00.576Z,88.19
2023-01-20T16:30:00.553Z,87.54
2023-01-20T16:35:00.574Z,87.87
2023-01-20T16:40:00.626Z,88.26
2023-01-20T16:45:00.559Z,87.97
2023-01-20T16:50:00.678Z,87.84
2023-01-20T16:55:00.549Z,87.38
2023-01-20T17:00:01.473Z,87.57
2023-01-20T17:05:00.574Z,87.89
2023-01-20T17:10:00.688Z,87.96
2023-01-20T17:15:00.582Z,88.02
2023-01-20T17:20:00.599Z,88.14
2023-01-20T17:25:00.558Z,88.21
2023-01-20T17:30:00.574Z,88.30
2023-01-20T17:35:00.843Z,88.79
2023-01-20T17:40:00.609Z,88.89
2023-01-20T17:45:00.611Z,88.79
2023-01-20T17:50:00.644Z,88.90
2023-01-20T17:55:00.570Z,89.34
2023-01-20T18:00:02.978Z,89.32
2023-01-20T18:05:00.638Z,89.44
2023-01-20T18:10:00.599Z,89.34
2023-01-20T18:15:00.556Z,89.20
2023-01-20T18:20:00.625Z,89.35
2023-01-20T18:25:00.686Z,89.16
2023-01-20T18:30:00.576Z,89.03
2023-01-20T18:35:00.612Z,88.92
2023-01-20T18:40:00.661Z,88.98
2023-01-20T18:45:01.615Z,89.09
2023-01-20T18:50:00.579Z,89.24
2023-01-20T18:55:00.563Z,89.42
2023-01-20T19:00:01.300Z,89.60
2023-01-20T19:05:00.578Z,89.54
2023-01-20T19:10:00.557Z,89.99
2023-01-20T19:15:00.573Z,89.90
2023-01-20T19:20:01.029Z,90.10
2023-01-20T19:25:00.608Z,89.98
2023-01-20T19:30:00.619Z,90.14
2023-01-20T19:35:00.582Z,90.23
2023-01-20T19:40:00.566Z,90.24
2023-01-20T19:45:00.595Z,90.29
2023-01-20T19:50:00.759Z,90.19
2023-01-20T19:55:00.575Z,90.30
2023-01-20T20:00:01.428Z,90.43
2023-01-20T20:05:00.597Z,90.29
2023-01-20T20:10:00.566Z,90.39
2023-01-20T20:15:00.579Z,90.41
2023-01-20T20:20:00.573Z,90.20
2023-01-20T20:25:00.651Z,90.26
2023-01-20T20:30:00.554Z,90.21
2023-01-20T20:35:00.575Z,90.22
2023-01-20T20:40:00.555Z,90.07
2023-01-20T20:45:00.613Z,89.87
2023-01-20T20:50:00.561Z,89.99
2023-01-20T20:55:00.571Z,89.89
2023-01-20T21:00:01.100Z,90.14
2023-01-20T21:05:00.599Z,90.06
2023-01-20T21:10:00.592Z,89.98
2023-01-20T21:15:00.564Z,90.18
2023-01-20T21:20:00.674Z,90.07
2023-01-20T21:25:00.633Z,90.04
2023-01-20T21:30:00.561Z,90.15
2023-01-20T21:35:00.598Z,90.19
2023-01-20T21:40:00.583Z,90.00
2023-01-20T21:45:00.601Z,90.01
2023-01-20T21:50:00.592Z,89.87
2023-01-20T21:55:01.747Z,89.96
2023-01-20T22:00:04.289Z,89.85
2023-01-20T22:05:00.645Z,89.99
2023-01-20T22:10:00.575Z,89.87
2023-01-20T22:15:01.637Z,89.78
2023-01-20T22:20:00.578Z,89.67
2023-01-20T22:25:00.565Z,89.93
2023-01-20T22:30:00.569Z,89.98
2023-01-20T22:35:00.568Z,89.86
2023-01-20T22:40:00.561Z,89.84
2023-01-20T22:45:00.558Z,89.67
2023-01-20T22:50:00.580Z,89.64
2023-01-20T22:55:00.569Z,89.45
2023-01-20T23:00:01.286Z,89.47
2023-01-20T23:05:00.561Z,89.52
2023-01-20T23:10:00.549Z,89.68
2023-01-20T23:15:00.629Z,89.70
2023-01-20T23:20:00.626Z,89.64
2023-01-20T23:25:00.584Z,89.68
2023-01-20T23:30:00.619Z,89.76
2023-01-20T23:35:00.611Z,89.61
2023-01-20T23:40:00.573Z,89.74
2023-01-20T23:45:00.610Z,89.64
2023-01-20T23:50:00.795Z,89.67
2023-01-20T23:55:00.566Z,89.75
